createdAt,value
2018-09-12T00:00:39.462Z,96040.34
2018-09-12T00:03:08.135Z,96053.39
2018-09-12T00:05:36.764Z,96045.65
2018-09-12T00:08:05.469Z,96045.30
2018-09-12T00:10:34.111Z,96048.38
2018-09-12T00:13:02.752Z,96037.34
2018-09-12T00:15:31.395Z,96033.67
2018-09-12T00:18:00.011Z,96033.46
2018-09-12T00:20:28.645Z,96059.95
2018-09-12T00:22:57.288Z,96043.67
2018-09-12T00:25:25.937Z,96043.94
2018-09-12T00:27:54.527Z,96041.22
2018-09-12T00:30:23.151Z,96041.56
2018-09-12T00:32:51.769Z,96046.45
2018-09-12T00:35:20.413Z,96055.06
2018-09-12T00:40:24.073Z,96066.28
2018-09-12T00:42:52.668Z,96069.33
2018-09-12T00:45:21.263Z,96069.96
2018-09-12T00:47:49.985Z,96069.64
2018-09-12T00:50:18.598Z,96089.44
2018-09-12T00:52:47.348Z,96074.52
2018-09-12T00:55:16.077Z,96074.52
2018-09-12T00:57:44.714Z,96078.34
2018-09-12T01:00:13.443Z,96078.84
2018-09-12T01:02:44.237Z,96077.97
2018-09-12T01:05:12.839Z,96084.58
2018-09-12T01:07:41.464Z,96079.20
2018-09-12T01:10:10.099Z,96080.41
2018-09-12T01:12:38.702Z,96079.36
2018-09-12T01:15:07.459Z,96086.19
2018-09-12T01:17:36.088Z,96079.14
2018-09-12T01:20:04.769Z,96079.26
2018-09-12T01:22:33.383Z,96081.67
2018-09-12T01:25:01.980Z,96088.55
2018-09-12T01:27:30.615Z,96089.09
2018-09-12T01:29:59.231Z,96083.52
2018-09-12T01:32:27.883Z,96085.41
2018-09-12T01:34:56.558Z,96086.81
2018-09-12T01:37:25.246Z,96087.18
2018-09-12T01:39:53.884Z,96089.84
2018-09-12T01:42:22.540Z,96094.66
2018-09-12T01:44:51.224Z,96088.17
2018-09-12T01:47:19.841Z,96082.77
2018-09-12T01:49:48.500Z,96084.25
2018-09-12T01:52:17.146Z,96087.92
2018-09-12T01:54:45.735Z,96092.59
2018-09-12T01:57:14.360Z,96093.22
2018-09-12T01:59:43.051Z,96096.09
2018-09-12T02:02:11.732Z,96089.42
2018-09-12T02:04:40.341Z,96089.14
2018-09-12T02:07:08.965Z,96081.75
2018-09-12T02:09:37.632Z,96081.47
2018-09-12T02:12:06.250Z,96076.51
2018-09-12T02:14:34.879Z,96080.02
2018-09-12T02:17:03.481Z,96073.91
2018-09-12T02:19:32.127Z,96083.09
2018-09-12T02:22:03.539Z,96088.53
2018-09-12T02:24:32.232Z,96084.30
2018-09-12T02:27:00.877Z,96085.97
2018-09-12T02:29:29.515Z,96085.36
2018-09-12T02:31:58.132Z,96080.19
2018-09-12T02:34:26.754Z,96080.67
2018-09-12T02:36:55.405Z,96082.92
2018-09-12T02:39:24.126Z,96080.94
2018-09-12T02:41:52.927Z,96081.39
2018-09-12T02:44:21.692Z,96074.81
2018-09-12T02:46:50.435Z,96078.78
2018-09-12T02:49:19.239Z,96078.32
2018-09-12T02:51:47.999Z,96076.27
2018-09-12T02:54:16.808Z,96080.19
2018-09-12T02:56:45.586Z,96082.90
2018-09-12T02:59:14.312Z,96088.78
2018-09-12T03:01:43.042Z,96081.64
2018-09-12T03:04:28.134Z,96079.05
2018-09-12T03:06:56.944Z,96080.13
2018-09-12T03:09:25.693Z,96082.08
2018-09-12T03:11:54.412Z,96083.45
2018-09-12T03:14:23.247Z,96094.52
2018-09-12T03:16:51.976Z,96086.92
2018-09-12T03:19:20.720Z,95892.13
2018-09-12T03:21:49.604Z,96083.22
2018-09-12T03:24:18.322Z,96078.97
2018-09-12T03:26:47.004Z,96079.24
2018-09-12T03:29:15.668Z,96081.30
2018-09-12T03:31:44.355Z,96080.57
2018-09-12T03:34:13.054Z,96086.13
2018-09-12T03:36:41.719Z,96089.05
2018-09-12T03:39:11.828Z,96085.04
2018-09-12T03:41:41.308Z,96089.91
2018-09-12T03:44:11.150Z,96091.27
2018-09-12T03:46:40.887Z,96090.83
2018-09-12T03:49:09.798Z,96096.00
2018-09-12T03:51:38.514Z,96094.61
2018-09-12T03:54:07.126Z,96095.62
2018-09-12T03:56:35.761Z,96092.50
2018-09-12T03:59:04.508Z,96091.75
2018-09-12T04:01:33.221Z,96094.92
2018-09-12T04:04:01.814Z,96102.15
2018-09-12T04:06:30.428Z,96098.52
2018-09-12T04:09:00.033Z,96105.32
2018-09-12T04:11:28.648Z,96102.30
2018-09-12T04:13:57.256Z,96110.16
2018-09-12T04:16:25.867Z,96111.45
2018-09-12T04:18:54.464Z,96103.82
2018-09-12T04:21:23.164Z,96105.27
2018-09-12T04:23:51.856Z,96105.58
2018-09-12T04:26:20.475Z,96110.45
2018-09-12T04:28:49.198Z,96113.63
2018-09-12T04:31:17.837Z,96114.22
2018-09-12T04:33:46.446Z,96118.49
2018-09-12T04:36:15.119Z,96121.53
2018-09-12T04:38:43.724Z,96121.08
2018-09-12T04:41:12.734Z,96123.52
2018-09-12T04:43:41.825Z,96132.70
2018-09-12T04:46:10.744Z,96143.80
2018-09-12T04:48:39.420Z,96144.03
2018-09-12T04:51:08.116Z,96142.39
2018-09-12T04:53:36.783Z,96144.86
2018-09-12T04:56:06.126Z,96143.17
2018-09-12T04:58:34.772Z,96144.55
2018-09-12T05:01:03.531Z,96141.58
2018-09-12T05:03:32.155Z,96138.69
2018-09-12T05:06:00.802Z,96134.94
2018-09-12T05:08:29.402Z,96140.58
2018-09-12T05:10:58.066Z,96143.59
2018-09-12T05:13:26.677Z,96149.59
2018-09-12T05:15:55.374Z,96145.70
2018-09-12T05:18:24.016Z,96145.64
2018-09-12T05:20:52.648Z,96149.39
2018-09-12T05:23:21.331Z,96154.74
2018-09-12T05:25:49.983Z,96152.03
2018-09-12T05:28:18.620Z,96149.02
2018-09-12T05:30:47.310Z,96146.50
2018-09-12T05:33:15.994Z,96142.61
2018-09-12T05:35:44.617Z,96143.32
2018-09-12T05:38:13.264Z,96150.88
2018-09-12T05:40:41.913Z,96146.11
2018-09-12T05:43:10.547Z,96147.77
2018-09-12T05:45:39.271Z,96142.78
2018-09-12T05:48:07.957Z,96139.34
2018-09-12T05:50:36.626Z,96148.11
2018-09-12T05:53:05.328Z,96153.00
2018-09-12T05:55:34.083Z,96148.42
2018-09-12T05:58:03.429Z,96143.62
2018-09-12T06:00:32.057Z,96140.84
2018-09-12T06:03:00.821Z,96140.38
2018-09-12T06:05:29.497Z,96142.33
2018-09-12T06:07:58.097Z,96130.86
2018-09-12T06:10:26.718Z,96139.26
2018-09-12T06:12:55.350Z,96135.68
2018-09-12T06:15:24.077Z,96132.52
2018-09-12T06:17:52.742Z,96131.61
2018-09-12T06:20:21.403Z,96137.00
2018-09-12T06:22:50.135Z,96133.99
2018-09-12T06:25:18.829Z,96132.23
2018-09-12T06:27:47.482Z,96130.39
2018-09-12T06:30:16.372Z,96134.51
2018-09-12T06:32:45.118Z,96125.83
2018-09-12T06:35:13.868Z,96134.48
2018-09-12T06:37:42.685Z,96130.47
2018-09-12T06:40:11.400Z,96131.84
2018-09-12T06:42:40.178Z,96131.56
2018-09-12T06:45:08.925Z,96125.12
2018-09-12T06:47:37.717Z,96125.72
2018-09-12T06:50:06.581Z,96130.39
2018-09-12T06:52:35.404Z,96123.55
2018-09-12T06:55:04.236Z,96119.22
2018-09-12T06:57:33.101Z,96123.38
2018-09-12T07:00:01.845Z,96123.79
2018-09-12T07:02:30.579Z,96131.60
2018-09-12T07:04:59.257Z,96123.91
2018-09-12T07:07:27.978Z,96126.59
2018-09-12T07:09:56.722Z,96131.60
2018-09-12T07:12:25.509Z,96122.53
2018-09-12T07:14:54.233Z,96117.05
2018-09-12T07:17:22.944Z,96121.58
2018-09-12T07:19:51.720Z,96122.73
2018-09-12T07:22:20.535Z,96120.64
2018-09-12T07:24:49.433Z,96122.49
2018-09-12T07:27:18.135Z,96122.88
2018-09-12T07:29:46.841Z,96120.61
2018-09-12T07:32:15.623Z,96124.48
2018-09-12T07:34:44.303Z,96122.80
2018-09-12T07:37:13.078Z,96120.28
2018-09-12T07:39:41.845Z,96113.45
2018-09-12T07:42:10.640Z,96117.11
2018-09-12T07:44:39.379Z,96122.66
2018-09-12T07:47:08.169Z,96114.13
2018-09-12T07:49:36.918Z,96118.02
2018-09-12T07:52:05.831Z,96112.34
2018-09-12T07:54:34.859Z,96105.80
2018-09-12T07:57:03.640Z,96110.39
2018-09-12T07:59:32.441Z,96111.98
2018-09-12T08:02:01.188Z,96110.00
2018-09-12T08:04:30.031Z,96105.95
2018-09-12T08:06:59.949Z,96109.60
2018-09-12T08:09:28.757Z,96105.75
2018-09-12T08:11:58.592Z,96098.44
2018-09-12T08:14:27.353Z,96095.86
2018-09-12T08:16:56.160Z,96092.95
2018-09-12T08:19:24.885Z,96094.34
2018-09-12T08:21:53.593Z,96094.58
2018-09-12T08:24:22.346Z,96087.09
2018-09-12T08:26:51.148Z,96089.46
2018-09-12T08:29:19.856Z,96095.85
2018-09-12T08:31:48.662Z,96080.52
2018-09-12T08:34:17.462Z,96088.53
2018-09-12T08:36:46.270Z,96087.40
2018-09-12T08:39:15.052Z,96078.42
2018-09-12T08:41:43.858Z,96084.17
2018-09-12T08:44:12.683Z,96076.72
2018-09-12T08:46:41.447Z,96078.00
2018-09-12T08:49:10.269Z,96072.29
2018-09-12T08:51:39.141Z,96071.80
2018-09-12T08:54:07.858Z,96062.84
2018-09-12T08:56:36.792Z,96066.73
2018-09-12T08:59:05.653Z,96066.14
2018-09-12T09:01:34.547Z,96061.18
2018-09-12T09:04:03.312Z,96055.67
2018-09-12T09:06:32.101Z,96055.80
2018-09-12T09:09:00.818Z,96049.71
2018-09-12T09:11:29.613Z,96051.84
2018-09-12T09:13:58.393Z,96054.38
2018-09-12T09:16:27.485Z,96049.03
2018-09-12T09:18:56.177Z,96051.13
2018-09-12T09:21:24.907Z,96041.99
2018-09-12T09:23:53.824Z,96040.14
2018-09-12T09:26:22.584Z,96039.18
2018-09-12T09:28:51.614Z,96041.89
2018-09-12T09:31:20.422Z,96046.45
2018-09-12T09:33:49.348Z,96038.52
2018-09-12T09:36:18.182Z,96033.66
2018-09-12T09:38:46.924Z,96028.17
2018-09-12T09:41:15.671Z,96028.34
2018-09-12T09:43:44.535Z,96025.03
2018-09-12T09:46:17.086Z,96027.12
2018-09-12T09:48:45.867Z,96023.66
2018-09-12T09:51:14.924Z,96027.27
2018-09-12T09:53:43.947Z,96026.42
2018-09-12T09:56:12.822Z,96031.03
2018-09-12T09:58:41.856Z,96020.67
2018-09-12T10:01:15.975Z,96025.03
2018-09-12T10:03:50.021Z,96022.17
2018-09-12T10:06:21.061Z,96023.96
2018-09-12T10:08:57.399Z,96013.97
2018-09-12T10:11:26.152Z,96008.95
2018-09-12T10:13:54.971Z,96009.63
2018-09-12T10:16:23.740Z,96010.27
2018-09-12T10:18:52.484Z,96002.23
2018-09-12T10:21:21.316Z,96003.97
2018-09-12T10:23:50.208Z,96007.70
2018-09-12T10:26:18.921Z,96009.00
2018-09-12T10:28:47.693Z,96006.35
2018-09-12T10:31:16.490Z,96010.97
2018-09-12T10:33:45.298Z,96003.41
2018-09-12T10:36:13.977Z,96008.59
2018-09-12T10:38:42.802Z,95960.27
2018-09-12T10:41:11.494Z,95998.45
2018-09-12T10:43:40.556Z,95993.20
2018-09-12T10:46:09.592Z,95995.19
2018-09-12T10:48:38.369Z,95990.73
2018-09-12T10:51:07.161Z,95993.06
2018-09-12T10:53:35.889Z,95987.40
2018-09-12T10:56:04.734Z,95989.41
2018-09-12T10:58:33.489Z,95991.69
2018-09-12T11:01:02.342Z,95993.34
2018-09-12T11:03:31.101Z,95991.83
2018-09-12T11:05:59.875Z,95996.05
2018-09-12T11:08:28.725Z,95991.14
2018-09-12T11:10:57.537Z,95980.92
2018-09-12T11:13:26.349Z,95986.73
2018-09-12T11:15:55.161Z,95977.50
2018-09-12T11:18:23.897Z,95986.49
2018-09-12T11:20:52.593Z,95979.05
2018-09-12T11:23:21.320Z,95974.70
2018-09-12T11:25:50.081Z,95973.09
2018-09-12T11:28:18.853Z,95972.99
2018-09-12T11:30:47.588Z,95973.55
2018-09-12T11:33:16.438Z,95962.05
2018-09-12T11:35:45.186Z,95969.33
2018-09-12T11:38:14.010Z,95968.23
2018-09-12T11:40:49.189Z,95966.94
2018-09-12T11:43:17.974Z,95955.83
2018-09-12T11:45:46.797Z,95952.08
2018-09-12T11:48:15.720Z,95955.73
2018-09-12T11:50:44.487Z,95947.98
2018-09-12T11:53:13.316Z,95948.26
2018-09-12T11:55:42.157Z,95941.47
2018-09-12T11:58:10.972Z,95943.62
2018-09-12T12:00:39.889Z,95935.86
2018-09-12T12:03:08.700Z,95936.59
2018-09-12T12:05:37.512Z,95786.53
2018-09-12T12:08:06.287Z,95930.80
2018-09-12T12:10:35.097Z,95922.45
2018-09-12T12:13:03.952Z,95926.56
2018-09-12T12:15:32.694Z,95927.48
2018-09-12T12:18:01.544Z,95932.13
2018-09-12T12:20:30.455Z,95915.52
2018-09-12T12:22:59.226Z,95918.14
2018-09-12T12:25:27.987Z,95909.72
2018-09-12T12:27:56.763Z,95912.37
2018-09-12T12:30:26.361Z,95919.16
2018-09-12T12:32:55.163Z,95908.42
2018-09-12T12:35:24.058Z,95904.42
2018-09-12T12:37:53.261Z,95907.28
2018-09-12T12:40:22.291Z,95905.18
2018-09-12T12:42:51.134Z,95909.06
2018-09-12T12:45:19.877Z,95909.55
2018-09-12T12:47:48.719Z,95906.22
2018-09-12T12:50:17.573Z,95907.77
2018-09-12T12:52:46.682Z,95905.17
2018-09-12T12:55:15.421Z,95902.67
2018-09-12T12:57:44.163Z,95907.84
2018-09-12T13:00:13.024Z,95901.77
2018-09-12T13:02:41.720Z,95899.63
2018-09-12T13:05:10.536Z,95905.60
2018-09-12T13:07:39.469Z,95905.64
2018-09-12T13:10:08.248Z,95900.94
2018-09-12T13:12:37.083Z,95898.26
2018-09-12T13:15:06.016Z,95897.81
2018-09-12T13:17:34.772Z,95894.44
2018-09-12T13:20:03.597Z,95893.45
2018-09-12T13:22:32.280Z,95893.55
2018-09-12T13:25:01.046Z,95890.39
2018-09-12T13:27:29.946Z,95888.03
2018-09-12T13:29:59.032Z,95878.95
2018-09-12T13:32:28.052Z,95878.41
2018-09-12T13:34:56.821Z,95722.14
2018-09-12T13:37:25.547Z,95886.33
2018-09-12T13:39:54.377Z,95893.29
2018-09-12T13:42:23.141Z,95896.25
2018-09-12T13:44:51.937Z,95880.20
2018-09-12T13:47:20.978Z,95879.03
2018-09-12T13:49:49.744Z,95877.03
2018-09-12T13:52:18.584Z,95874.97
2018-09-12T13:54:47.351Z,95878.66
2018-09-12T13:57:16.039Z,95880.02
2018-09-12T13:59:44.734Z,95875.68
2018-09-12T14:02:13.502Z,95873.93
2018-09-12T14:04:42.336Z,95869.42
2018-09-12T14:07:11.150Z,95871.48
2018-09-12T14:09:39.908Z,95871.78
2018-09-12T14:12:08.843Z,95870.91
2018-09-12T14:14:37.635Z,95861.77
2018-09-12T14:17:06.444Z,95860.05
2018-09-12T14:19:35.259Z,95866.95
2018-09-12T14:22:03.899Z,95866.78
2018-09-12T14:24:32.686Z,95866.44
2018-09-12T14:27:01.431Z,95862.30
2018-09-12T14:29:30.215Z,95860.32
2018-09-12T14:31:58.979Z,95862.73
2018-09-12T14:34:27.670Z,95864.34
2018-09-12T14:36:56.407Z,95858.98
2018-09-12T14:39:25.212Z,95870.52
2018-09-12T14:41:53.959Z,95855.30
2018-09-12T14:44:22.841Z,95866.19
2018-09-12T14:46:51.687Z,95855.27
2018-09-12T14:49:20.435Z,95858.29
2018-09-12T14:51:49.274Z,95849.27
2018-09-12T14:54:17.955Z,95857.45
2018-09-12T14:56:46.671Z,95853.38
2018-09-12T14:59:15.423Z,95824.62
2018-09-12T15:01:44.104Z,95851.14
2018-09-12T15:04:12.860Z,95851.52
2018-09-12T15:06:41.746Z,95843.25
2018-09-12T15:09:12.574Z,95843.31
2018-09-12T15:11:41.370Z,95846.64
2018-09-12T15:14:10.539Z,95840.77
2018-09-12T15:16:39.378Z,95848.09
2018-09-12T15:19:08.145Z,95840.55
2018-09-12T15:21:36.824Z,95848.44
2018-09-12T15:24:05.573Z,95848.03
2018-09-12T15:26:34.372Z,95854.19
2018-09-12T15:29:03.023Z,95860.88
2018-09-12T15:31:31.731Z,95856.89
2018-09-12T15:34:00.432Z,95853.39
2018-09-12T15:36:29.155Z,95851.86
2018-09-12T15:38:57.940Z,95846.17
2018-09-12T15:41:26.659Z,95845.80
2018-09-12T15:43:55.459Z,95847.72
2018-09-12T15:46:24.208Z,95844.95
2018-09-12T15:48:52.980Z,95840.61
2018-09-12T15:51:21.689Z,95842.78
2018-09-12T15:53:50.413Z,95840.98
2018-09-12T15:56:19.215Z,95833.52
2018-09-12T15:58:47.896Z,95838.12
2018-09-12T16:01:16.558Z,95831.10
2018-09-12T16:03:45.325Z,95829.94
2018-09-12T16:06:14.051Z,95827.23
2018-09-12T16:08:42.868Z,95826.64
2018-09-12T16:11:11.715Z,95822.14
2018-09-12T16:13:40.589Z,95822.76
2018-09-12T16:16:09.401Z,95821.17
2018-09-12T16:18:39.885Z,95817.46
2018-09-12T16:21:08.595Z,95813.74
2018-09-12T16:23:37.431Z,95819.67
2018-09-12T16:26:06.352Z,95827.99
2018-09-12T16:28:35.255Z,95819.77
2018-09-12T16:31:03.923Z,95822.13
2018-09-12T16:33:32.620Z,95824.50
2018-09-12T16:36:02.710Z,95829.63
2018-09-12T16:38:31.395Z,95830.03
2018-09-12T16:41:00.189Z,95826.92
2018-09-12T16:43:28.867Z,95831.69
2018-09-12T16:45:57.700Z,95824.41
2018-09-12T16:48:26.607Z,95820.06
2018-09-12T16:50:55.427Z,95820.08
2018-09-12T16:53:24.216Z,95827.56
2018-09-12T16:55:52.919Z,95821.67
2018-09-12T16:58:21.667Z,95833.65
2018-09-12T17:00:50.419Z,95829.73
2018-09-12T17:03:19.191Z,95825.62
2018-09-12T17:05:47.892Z,95823.05
2018-09-12T17:08:17.030Z,95822.67
2018-09-12T17:10:45.815Z,95823.26
2018-09-12T17:13:14.500Z,95827.00
2018-09-12T17:15:43.291Z,95826.58
2018-09-12T17:18:11.928Z,95825.20
2018-09-12T17:20:40.591Z,95824.42
2018-09-12T17:23:10.031Z,95832.48
2018-09-12T17:25:38.743Z,95836.41
2018-09-12T17:28:07.366Z,95838.17
2018-09-12T17:30:36.087Z,95836.41
2018-09-12T17:33:04.797Z,95845.81
2018-09-12T17:35:33.525Z,95854.47
2018-09-12T17:38:02.247Z,95848.98
2018-09-12T17:40:31.000Z,95845.44
2018-09-12T17:42:59.735Z,95855.03
2018-09-12T17:45:28.546Z,95847.78
2018-09-12T17:47:57.171Z,95849.91
2018-09-12T17:50:25.854Z,95853.23
2018-09-12T17:52:54.532Z,95858.70
2018-09-12T17:55:23.196Z,95853.98
2018-09-12T17:57:51.868Z,95854.16
2018-09-12T18:00:20.688Z,95848.66
2018-09-12T18:02:49.491Z,95853.77
2018-09-12T18:05:18.267Z,95856.67
2018-09-12T18:07:46.926Z,95859.81
2018-09-12T18:10:15.645Z,95863.54
2018-09-12T18:12:44.337Z,95859.79
2018-09-12T18:15:13.027Z,95865.62
2018-09-12T18:17:41.810Z,95871.09
2018-09-12T18:20:10.660Z,95864.81
2018-09-12T18:22:39.396Z,95864.98
2018-09-12T18:25:08.121Z,95866.14
2018-09-12T18:27:36.789Z,95870.66
2018-09-12T18:30:07.643Z,95876.15
2018-09-12T18:32:36.327Z,95880.41
2018-09-12T18:35:05.109Z,95874.31
2018-09-12T18:37:33.960Z,95874.86
2018-09-12T18:40:03.231Z,95887.39
2018-09-12T18:42:32.089Z,95882.88
2018-09-12T18:45:00.809Z,95886.98
2018-09-12T18:47:29.535Z,95884.78
2018-09-12T18:49:58.281Z,95890.76
2018-09-12T18:52:26.990Z,95888.02
2018-09-12T18:54:55.672Z,95886.06
2018-09-12T18:57:24.348Z,95889.56
2018-09-12T18:59:52.994Z,95893.23
2018-09-12T19:02:21.784Z,95889.91
2018-09-12T19:04:50.659Z,95894.19
2018-09-12T19:07:19.381Z,95888.89
2018-09-12T19:09:48.082Z,95893.22
2018-09-12T19:12:16.761Z,95890.53
2018-09-12T19:14:45.457Z,95887.08
2018-09-12T19:17:14.234Z,95882.79
2018-09-12T19:19:42.970Z,95880.00
2018-09-12T19:22:11.760Z,95873.86
2018-09-12T19:24:40.442Z,95873.23
2018-09-12T19:27:09.250Z,95884.42
2018-09-12T19:29:38.003Z,95885.79
2018-09-12T19:32:07.112Z,95891.35
2018-09-12T19:34:35.820Z,95890.10
2018-09-12T19:37:04.522Z,95893.06
2018-09-12T19:39:33.217Z,95886.27
2018-09-12T19:42:01.932Z,95891.40
2018-09-12T19:44:30.698Z,95883.75
2018-09-12T19:46:59.602Z,95880.39
2018-09-12T19:49:28.272Z,95879.41
2018-09-12T19:51:56.951Z,95874.28
2018-09-12T19:54:25.746Z,95870.13
2018-09-12T19:56:54.448Z,95873.03
2018-09-12T19:59:23.531Z,95870.41
2018-09-12T20:01:52.231Z,95869.34
2018-09-12T20:04:20.933Z,95868.33
2018-09-12T20:06:49.703Z,95880.67
2018-09-12T20:09:18.515Z,95878.16
2018-09-12T20:11:47.275Z,95873.40
2018-09-12T20:14:16.086Z,95878.88
2018-09-12T20:16:44.782Z,95881.78
2018-09-12T20:19:13.792Z,95884.54
2018-09-12T20:21:42.637Z,95876.55
2018-09-12T20:24:11.583Z,95882.24
2018-09-12T20:26:40.241Z,95882.59
2018-09-12T20:29:09.078Z,95881.95
2018-09-12T20:31:37.883Z,95876.16
2018-09-12T20:34:06.835Z,95880.18
2018-09-12T20:36:35.576Z,95877.03
2018-09-12T20:39:06.330Z,95809.19
2018-09-12T20:41:35.038Z,95873.94
2018-09-12T20:44:03.817Z,95865.64
2018-09-12T20:46:32.591Z,95873.86
2018-09-12T20:49:01.271Z,95870.65
2018-09-12T20:51:29.928Z,95868.65
2018-09-12T20:53:59.555Z,95868.46
2018-09-12T20:56:28.274Z,95868.81
2018-09-12T20:58:57.956Z,95868.22
2018-09-12T21:01:26.745Z,95867.66
2018-09-12T21:03:55.415Z,95864.38
2018-09-12T21:06:24.102Z,95873.89
2018-09-12T21:08:52.818Z,95866.11
2018-09-12T21:11:21.492Z,95868.44
2018-09-12T21:13:50.185Z,95866.27
2018-09-12T21:16:18.891Z,95870.67
2018-09-12T21:18:47.640Z,95871.66
2018-09-12T21:21:16.319Z,95871.31
2018-09-12T21:23:45.180Z,95877.97
2018-09-12T21:26:14.809Z,95872.58
2018-09-12T21:28:43.495Z,95874.19
2018-09-12T21:31:12.289Z,95868.73
2018-09-12T21:33:40.981Z,95864.48
2018-09-12T21:36:09.787Z,95861.21
2018-09-12T21:38:38.618Z,95859.25
2018-09-12T21:41:07.614Z,95858.50
2018-09-12T21:43:36.331Z,95854.81
2018-09-12T21:46:05.138Z,95858.80
2018-09-12T21:48:33.869Z,95855.01
2018-09-12T21:51:02.585Z,95855.55
2018-09-12T21:53:31.443Z,95845.77
2018-09-12T21:56:00.361Z,95843.70
2018-09-12T21:58:29.102Z,95841.23
2018-09-12T22:00:58.011Z,95846.06
2018-09-12T22:03:26.819Z,95845.55
2018-09-12T22:05:55.671Z,95847.48
2018-09-12T22:08:24.423Z,95851.45
2018-09-12T22:10:53.064Z,95854.98
2018-09-12T22:13:21.778Z,95850.52
2018-09-12T22:15:50.494Z,95846.50
2018-09-12T22:18:19.294Z,95839.66
2018-09-12T22:20:47.964Z,95845.53
2018-09-12T22:23:16.786Z,95843.92
2018-09-12T22:25:45.574Z,95839.48
2018-09-12T22:28:14.340Z,95847.72
2018-09-12T22:30:43.023Z,95849.88
2018-09-12T22:33:11.759Z,95805.43
2018-09-12T22:35:40.488Z,95838.54
2018-09-12T22:38:09.234Z,95834.94
2018-09-12T22:40:37.887Z,95836.30
2018-09-12T22:43:06.940Z,95835.88
2018-09-12T22:45:35.592Z,95840.20
2018-09-12T22:48:04.317Z,95839.21
2018-09-12T22:50:33.099Z,95834.74
2018-09-12T22:53:01.843Z,95831.30
2018-09-12T22:55:30.571Z,95836.30
2018-09-12T22:57:59.260Z,95826.31
2018-09-12T23:00:28.006Z,95829.98
2018-09-12T23:02:56.762Z,95826.46
2018-09-12T23:05:25.603Z,95825.80
2018-09-12T23:07:54.456Z,95830.61
2018-09-12T23:10:23.195Z,95832.84
2018-09-12T23:12:52.037Z,95833.98
2018-09-12T23:15:20.803Z,95829.99
2018-09-12T23:17:49.516Z,95827.27
2018-09-12T23:20:18.172Z,95825.53
2018-09-12T23:22:46.828Z,95826.33
2018-09-12T23:25:15.555Z,95822.80
2018-09-12T23:27:44.319Z,95821.53
2018-09-12T23:30:13.097Z,95820.23
2018-09-12T23:32:41.823Z,95819.15
2018-09-12T23:35:10.577Z,95813.22
2018-09-12T23:37:39.241Z,95816.11
2018-09-12T23:40:08.040Z,95811.73
2018-09-12T23:42:36.784Z,95816.16
2018-09-12T23:45:05.560Z,95815.52
2018-09-12T23:47:34.270Z,95809.44
2018-09-12T23:50:02.918Z,95807.98
2018-09-12T23:52:31.780Z,95802.48
2018-09-12T23:55:14.995Z,95805.36
2018-09-12T23:57:43.650Z,95808.56
